»·PEaware :: FSLCD KSNA-KSMO

FSLCD :: KSNA-KSMO

FLIGHT INFORMATION

Flight Status: Arrived
Operator: Unknown
More flights by this operator :: More flights under this callsign
Pilot: Gopalakrishna Pillai Sulekha S. (22834)
Aircraft: ROBIN DR-400
(DR40)
More flights by this aircraft type
Origin: KSNA John Wayne-Orange Co
United States
Destination: KSMO Santa Monica Mun
United States
More flights between these airports :: More routes between these airports
Route: +SLI V8 POXKU V363 BAYJY V186 DARTS
File this flight plan on PilotEdge
Remarks: I4 RATING
Altitude:
(Current/Filed)
6,000ft
Speed:
(Current/Filed)
125kts
Departed: 11-Feb-19 06:19 PM
Arrived: 11-Feb-19 07:03 PM
Distance/Time
Traveled:
35nm/0:43
Distance/Time
To Go:
Arrived

Flight Plot

Page will automatically refresh every two minutes.


Map Options




Map Legend


Flown Route
Filed Route
Departure Airport
Arrival Airport
Navaid (VOR, NDB)
Fix

Horizontal Profiles

Position Reports

Time Latitude Longitude Heading Altitude Ground
Speed
11-Feb-19 17:58 33.666708 -117.871857 316 52ft 0kts
11-Feb-19 17:59 33.666708 -117.871857 316 52ft 0kts
11-Feb-19 18:00 33.666708 -117.871857 316 52ft 0kts
11-Feb-19 18:01 33.666708 -117.871857 316 52ft 0kts
11-Feb-19 18:02 33.666708 -117.871857 316 52ft 0kts
11-Feb-19 18:03 33.666708 -117.871857 316 52ft 0kts
11-Feb-19 18:04 33.666708 -117.871857 316 52ft 0kts
11-Feb-19 18:05 33.666708 -117.871857 316 52ft 0kts
11-Feb-19 18:06 33.666708 -117.871857 316 52ft 0kts
11-Feb-19 18:07 33.666708 -117.871857 316 52ft 0kts
11-Feb-19 18:08 33.666708 -117.871857 316 52ft 0kts
11-Feb-19 18:09 33.666708 -117.871857 316 52ft 0kts
11-Feb-19 18:10 33.666708 -117.871857 316 52ft 0kts
11-Feb-19 18:11 33.666708 -117.871857 316 52ft 0kts
11-Feb-19 18:12 33.666846 -117.872001 324 52ft 7kts
11-Feb-19 18:13 33.670900 -117.869131 40 49ft 23kts
11-Feb-19 18:14 33.675346 -117.866327 28 45ft 19kts
11-Feb-19 18:15 33.679994 -117.863692 297 39ft 0kts
11-Feb-19 18:16 33.679994 -117.863692 297 39ft 0kts
11-Feb-19 18:17 33.679994 -117.863692 297 39ft 0kts
11-Feb-19 18:18 33.674182 -117.867880 207 192ft 89kts
11-Feb-19 18:19 33.655329 -117.890256 231 1405ft 105kts
11-Feb-19 18:20 33.636171 -117.919076 231 2459ft 107kts
11-Feb-19 18:21 33.618758 -117.945295 231 3845ft 98kts
11-Feb-19 18:22 33.601989 -117.970557 231 5296ft 95kts
11-Feb-19 18:23 33.600518 -117.997218 340 5995ft 103kts
11-Feb-19 18:24 33.628678 -117.991737 11 6000ft 103kts
11-Feb-19 18:25 33.657263 -117.984428 11 6001ft 109kts
11-Feb-19 18:26 33.687516 -117.976687 11 6000ft 112kts
11-Feb-19 18:27 33.718278 -117.968812 11 5999ft 112kts
11-Feb-19 18:28 33.749613 -117.960783 11 6000ft 117kts
11-Feb-19 18:29 33.781514 -117.952605 11 5999ft 117kts
11-Feb-19 18:30 33.807515 -117.937912 87 5986ft 87kts
11-Feb-19 18:31 33.818594 -117.915114 70 5999ft 84kts
11-Feb-19 18:32 33.826858 -117.885311 71 6006ft 112kts
11-Feb-19 18:33 33.837175 -117.847980 71 6000ft 119kts
11-Feb-19 18:34 33.847878 -117.809277 71 5832ft 124kts
11-Feb-19 18:35 33.864752 -117.785240 0 5816ft 97kts
11-Feb-19 18:36 33.892746 -117.785313 359 5818ft 106kts
11-Feb-19 18:37 33.923040 -117.785447 359 5817ft 110kts
11-Feb-19 18:38 33.954684 -117.785584 359 5817ft 117kts
11-Feb-19 18:39 33.987353 -117.785722 359 5816ft 117kts
11-Feb-19 18:40 34.010909 -117.802123 290 5815ft 104kts
11-Feb-19 18:41 34.021485 -117.835119 290 5819ft 110kts
11-Feb-19 18:42 34.032892 -117.870688 290 5817ft 114kts
11-Feb-19 18:43 34.044395 -117.906549 290 5816ft 114kts
11-Feb-19 18:44 34.055973 -117.942631 290 5818ft 118kts
11-Feb-19 18:45 34.068127 -117.980479 290 5817ft 121kts
11-Feb-19 18:46 34.080326 -118.018454 291 5816ft 121kts
11-Feb-19 18:47 34.092521 -118.056401 291 5816ft 121kts
11-Feb-19 18:48 34.098695 -118.096572 272 5639ft 128kts
11-Feb-19 18:49 34.100015 -118.137907 272 4729ft 116kts
11-Feb-19 18:50 34.101229 -118.176052 272 3858ft 109kts
11-Feb-19 18:51 34.102269 -118.208282 272 3818ft 95kts
11-Feb-19 18:52 34.103357 -118.241437 272 3817ft 100kts
11-Feb-19 18:53 34.104467 -118.275142 272 3817ft 100kts
11-Feb-19 18:54 34.104575 -118.308949 248 3816ft 100kts
11-Feb-19 18:55 34.093777 -118.341422 251 3535ft 109kts
11-Feb-19 18:56 34.095189 -118.370620 337 2622ft 98kts
11-Feb-19 18:57 34.097631 -118.389621 188 2310ft 68kts
11-Feb-19 18:58 34.077011 -118.385976 171 2324ft 92kts
11-Feb-19 18:59 34.052966 -118.402898 217 1655ft 117kts
11-Feb-19 19:00 34.036011 -118.427426 224 730ft 81kts
11-Feb-19 19:01 34.021600 -118.444502 224 281ft 69kts
11-Feb-19 19:02 34.013046 -118.454171 137 126ft 10kts
11-Feb-19 19:03 34.012996 -118.454119 138 126ft 0kts
11-Feb-19 19:04 34.011655 -118.454524 304 121ft 0kts

Navigation Log

Ident Type
Flight plan parsing failed, navigation log unavailable